Decoded Metar for EPMO ( in ) (IATA:) | Meteo·Mobile Aviation Weather
aviador You're here:

EPMO Decoded Metar

in
Report Time2019-11-16 01:30:00
UTC Time2019-11-16 01:50:57
Flight Rules lifr LIFR
Wind130° at 07 kt
W.Decomp.*RWY 08: 4.5 kt HW 5.4 kt RCW
Visibility3300 m
Phenomena:Mist
Clouds:Overcast 004 Hf
Ceiling400 ft
Temp09°C
Dew Point09°C (100% RH)
AAT6.3°C
QNH1013 hPa
Raw Report
EPMO 160130Z 13007KT 110V180 3300 BR OVC004 09/09 Q1013=

Extra information for EPMO:More info

Social comments